createdAt,value
2023-04-19T00:01:45.119Z,5.10
2023-04-19T00:04:15.310Z,4.60
2023-04-19T00:06:44.636Z,3.90
2023-04-19T00:09:13.600Z,3.90
2023-04-19T00:11:42.340Z,3.30
2023-04-19T00:14:10.992Z,4.40
2023-04-19T00:16:39.690Z,4.20
2023-04-19T00:19:08.648Z,3.10
2023-04-19T00:21:37.406Z,2.90
2023-04-19T00:24:06.564Z,3.50
2023-04-19T00:26:35.330Z,3.40
2023-04-19T00:29:04.036Z,3.00
2023-04-19T00:31:32.661Z,2.50
2023-04-19T00:34:01.297Z,2.50
2023-04-19T00:36:29.936Z,2.70
2023-04-19T00:38:58.637Z,2.50
2023-04-19T00:41:27.347Z,2.20
2023-04-19T00:43:56.088Z,2.10
2023-04-19T00:46:25.918Z,2.50
2023-04-19T00:48:54.634Z,2.50
2023-04-19T00:51:23.655Z,2.10
2023-04-19T00:53:52.803Z,2.20
2023-04-19T00:56:22.635Z,2.10
2023-04-19T00:58:51.467Z,1.90
2023-04-19T01:01:20.365Z,3.00
2023-04-19T01:03:49.202Z,2.00
2023-04-19T01:06:17.937Z,2.90
2023-04-19T01:08:46.730Z,1.90
2023-04-19T01:11:15.416Z,2.20
2023-04-19T01:13:44.108Z,2.00
2023-04-19T01:16:12.858Z,1.80
2023-04-19T01:18:41.689Z,2.10
2023-04-19T01:21:10.378Z,2.00
2023-04-19T01:23:39.576Z,2.60
2023-04-19T01:26:08.313Z,1.90
2023-04-19T01:28:37.285Z,2.10
2023-04-19T01:31:06.089Z,1.70
2023-04-19T01:33:34.810Z,1.80
2023-04-19T01:36:03.714Z,1.70
2023-04-19T01:38:32.370Z,1.90
2023-04-19T01:41:01.039Z,1.60
2023-04-19T01:43:29.862Z,1.80
2023-04-19T01:45:58.592Z,1.30
2023-04-19T01:48:27.243Z,1.80
2023-04-19T01:50:55.961Z,1.90
2023-04-19T01:53:24.715Z,2.30
2023-04-19T01:55:53.362Z,1.80
2023-04-19T01:58:22.070Z,1.90
2023-04-19T02:00:50.852Z,1.20
2023-04-19T02:03:19.747Z,1.80
2023-04-19T02:05:48.644Z,1.90
2023-04-19T02:08:17.555Z,2.10
2023-04-19T02:10:46.266Z,1.90
2023-04-19T02:13:14.928Z,1.60
2023-04-19T02:15:43.586Z,1.60
2023-04-19T02:18:13.501Z,2.00
2023-04-19T02:20:42.214Z,1.90
2023-04-19T02:23:10.906Z,1.90
2023-04-19T02:25:39.572Z,2.60
2023-04-19T02:28:08.211Z,2.10
2023-04-19T02:30:37.138Z,2.40
2023-04-19T02:33:06.014Z,3.00
2023-04-19T02:35:34.878Z,2.60
2023-04-19T02:38:04.724Z,1.40
2023-04-19T02:40:33.425Z,1.80
2023-04-19T02:43:04.275Z,2.50
2023-04-19T02:45:32.932Z,2.20
2023-04-19T02:48:02.304Z,2.40
2023-04-19T02:50:32.156Z,2.50
2023-04-19T02:53:00.792Z,2.30
2023-04-19T02:55:29.443Z,2.60
2023-04-19T02:57:58.056Z,2.70
2023-04-19T03:00:26.891Z,2.20
2023-04-19T03:02:56.321Z,2.20
2023-04-19T03:05:25.133Z,2.10
2023-04-19T03:07:53.782Z,2.20
2023-04-19T03:10:22.569Z,2.20
2023-04-19T03:12:51.222Z,1.80
2023-04-19T03:15:20.747Z,1.90
2023-04-19T03:17:49.470Z,1.80
2023-04-19T03:20:19.168Z,2.30
2023-04-19T03:22:48.235Z,2.10
2023-04-19T03:25:17.563Z,2.10
2023-04-19T03:27:48.091Z,2.40
2023-04-19T03:30:18.030Z,1.80
2023-04-19T03:32:47.834Z,1.80
2023-04-19T03:35:16.678Z,1.70
2023-04-19T03:37:45.495Z,2.00
2023-04-19T03:40:14.244Z,4.90
2023-04-19T03:42:42.950Z,6.00
2023-04-19T03:45:11.781Z,5.40
2023-04-19T03:47:40.920Z,3.40
2023-04-19T03:50:10.411Z,2.70
2023-04-19T03:52:39.099Z,2.40
2023-04-19T03:55:08.649Z,2.40
2023-04-19T03:57:37.531Z,2.50
2023-04-19T04:00:09.721Z,2.80
2023-04-19T04:02:39.669Z,2.40
2023-04-19T04:05:08.867Z,2.60
2023-04-19T04:07:37.793Z,2.50
2023-04-19T04:10:07.540Z,2.60
2023-04-19T04:12:36.213Z,2.50
2023-04-19T04:15:05.437Z,2.30
2023-04-19T04:17:34.158Z,1.70
2023-04-19T04:20:03.249Z,2.00
2023-04-19T04:22:32.831Z,1.60
2023-04-19T04:25:02.195Z,2.60
2023-04-19T04:27:30.868Z,2.10
2023-04-19T04:29:59.558Z,2.30
2023-04-19T04:32:28.254Z,2.10
2023-04-19T04:34:56.938Z,1.90
2023-04-19T04:37:25.670Z,2.10
2023-04-19T04:39:54.308Z,1.90
2023-04-19T04:42:23.074Z,2.20
2023-04-19T04:44:52.334Z,2.10
2023-04-19T04:47:21.259Z,2.20
2023-04-19T04:49:50.529Z,2.40
2023-04-19T04:52:19.189Z,1.60
2023-04-19T04:54:47.841Z,1.60
2023-04-19T04:57:16.506Z,1.90
2023-04-19T04:59:46.414Z,2.50
2023-04-19T05:02:15.424Z,3.10
2023-04-19T05:04:44.637Z,2.40
2023-04-19T05:07:13.585Z,2.10
2023-04-19T05:09:42.243Z,2.20
2023-04-19T05:12:10.876Z,2.80
2023-04-19T05:14:39.541Z,2.60
2023-04-19T05:17:08.182Z,2.90
2023-04-19T05:19:36.910Z,2.20
2023-04-19T05:22:05.725Z,2.60
2023-04-19T05:24:34.406Z,2.90
2023-04-19T05:27:03.180Z,2.30
2023-04-19T05:29:32.539Z,2.80
2023-04-19T05:32:01.174Z,3.10
2023-04-19T05:34:30.435Z,3.20
2023-04-19T05:36:59.383Z,3.60
2023-04-19T05:39:28.037Z,3.50
2023-04-19T05:41:56.750Z,3.30
2023-04-19T05:44:25.716Z,3.10
2023-04-19T05:46:54.341Z,3.80
2023-04-19T05:49:23.048Z,3.70
2023-04-19T05:51:51.754Z,3.10
2023-04-19T05:54:21.098Z,3.50
2023-04-19T05:56:49.802Z,3.30
2023-04-19T05:59:18.500Z,3.50
2023-04-19T06:01:47.239Z,3.90
2023-04-19T06:04:16.371Z,3.80
2023-04-19T06:06:45.488Z,3.80
2023-04-19T06:09:15.076Z,3.10
2023-04-19T06:11:50.534Z,5.30
2023-04-19T06:14:19.899Z,4.20
2023-04-19T06:16:48.754Z,4.10
2023-04-19T06:19:17.480Z,3.40
2023-04-19T06:21:46.314Z,3.90
2023-04-19T06:24:15.170Z,3.80
2023-04-19T06:26:43.995Z,4.50
2023-04-19T06:29:12.636Z,3.80
2023-04-19T06:31:41.488Z,3.50
2023-04-19T06:34:11.109Z,4.30
2023-04-19T06:36:39.898Z,4.00
2023-04-19T06:39:08.566Z,5.00
2023-04-19T06:41:37.231Z,4.50
2023-04-19T06:44:06.031Z,4.20
2023-04-19T06:46:34.703Z,3.50
2023-04-19T06:49:03.437Z,3.70
2023-04-19T06:51:33.431Z,3.70
2023-04-19T06:54:02.113Z,4.20
2023-04-19T06:56:47.574Z,3.40
2023-04-19T06:59:20.979Z,3.10
2023-04-19T07:01:49.862Z,3.00
2023-04-19T07:04:19.109Z,3.20
2023-04-19T07:06:50.074Z,3.80
2023-04-19T07:09:18.748Z,3.40
2023-04-19T07:11:48.437Z,4.10
2023-04-19T07:14:19.329Z,3.70
2023-04-19T07:16:48.487Z,3.70
2023-04-19T07:19:20.560Z,3.50
2023-04-19T07:21:50.102Z,3.40
2023-04-19T07:24:18.798Z,3.70
2023-04-19T07:26:47.558Z,3.40
2023-04-19T07:29:16.236Z,3.70
2023-04-19T07:31:45.052Z,5.00
2023-04-19T07:34:14.131Z,4.60
2023-04-19T07:36:43.069Z,4.40
2023-04-19T07:39:12.031Z,4.10
2023-04-19T07:41:40.736Z,3.80
2023-04-19T07:44:09.377Z,4.50
2023-04-19T07:46:38.038Z,4.60
2023-04-19T07:49:06.796Z,4.80
2023-04-19T07:51:35.431Z,4.90
2023-04-19T07:54:04.157Z,5.10
2023-04-19T07:56:33.753Z,6.10
2023-04-19T07:59:08.499Z,5.90
2023-04-19T08:01:38.384Z,5.60
2023-04-19T08:04:08.062Z,5.20
2023-04-19T08:06:39.896Z,5.00
2023-04-19T08:09:08.652Z,4.90
2023-04-19T08:11:37.398Z,5.10
2023-04-19T08:14:15.194Z,5.70
2023-04-19T08:19:26.324Z,4.90
2023-04-19T08:21:54.945Z,5.10
2023-04-19T08:24:23.609Z,5.30
2023-04-19T08:26:54.946Z,5.80
2023-04-19T08:29:23.684Z,7.70
2023-04-19T08:31:52.501Z,8.10
2023-04-19T08:34:21.217Z,6.30
2023-04-19T08:36:59.959Z,6.80
2023-04-19T08:39:34.139Z,5.80
2023-04-19T08:42:13.179Z,5.10
2023-04-19T08:45:09.489Z,5.90
2023-04-19T08:47:48.206Z,5.90
2023-04-19T08:50:33.342Z,4.20
2023-04-19T08:53:21.113Z,4.00
2023-04-19T08:56:12.760Z,3.60
2023-04-19T08:59:00.394Z,3.70
2023-04-19T09:01:35.962Z,3.60
2023-04-19T09:04:27.185Z,3.40
2023-04-19T09:06:56.966Z,3.60
2023-04-19T09:12:00.698Z,3.50
2023-04-19T09:14:29.972Z,3.30
2023-04-19T09:17:15.858Z,3.20
2023-04-19T09:19:50.602Z,3.50
2023-04-19T09:22:19.655Z,3.20
2023-04-19T09:27:34.822Z,3.00
2023-04-19T09:30:04.863Z,2.90
2023-04-19T09:32:47.105Z,3.30
2023-04-19T09:35:16.143Z,2.90
2023-04-19T09:38:05.434Z,3.70
2023-04-19T09:40:35.564Z,3.90
2023-04-19T09:43:20.665Z,3.10
2023-04-19T09:45:53.049Z,2.40
2023-04-19T09:48:23.090Z,3.40
2023-04-19T09:51:03.313Z,2.70
2023-04-19T09:53:35.709Z,3.10
2023-04-19T09:56:06.346Z,3.80
2023-04-19T09:58:46.914Z,4.20
2023-04-19T10:01:20.130Z,3.70
2023-04-19T10:03:50.967Z,3.30
2023-04-19T10:08:54.742Z,3.50
2023-04-19T10:11:27.660Z,4.40
2023-04-19T10:14:19.902Z,6.30
2023-04-19T10:16:48.778Z,6.10
2023-04-19T10:19:20.180Z,6.90
2023-04-19T10:21:51.328Z,5.30
2023-04-19T10:24:21.531Z,4.50
2023-04-19T10:27:13.085Z,5.70
2023-04-19T10:30:05.069Z,5.50
2023-04-19T10:32:43.364Z,9.10
2023-04-19T10:35:29.433Z,6.50
2023-04-19T10:38:16.605Z,5.90
2023-04-19T10:40:51.849Z,6.00
2023-04-19T10:43:21.322Z,5.70
2023-04-19T10:45:50.089Z,5.70
2023-04-19T10:48:33.194Z,5.90
2023-04-19T10:51:04.972Z,6.80
2023-04-19T10:53:49.570Z,5.60
2023-04-19T10:56:21.137Z,5.70
2023-04-19T10:59:13.580Z,6.00
2023-04-19T11:02:03.055Z,5.50
2023-04-19T11:04:32.133Z,5.40
2023-04-19T11:07:03.568Z,5.90
2023-04-19T11:09:34.873Z,4.80
2023-04-19T11:12:05.668Z,4.90
2023-04-19T11:14:41.334Z,5.20
2023-04-19T11:17:16.892Z,4.90
2023-04-19T11:20:00.055Z,5.60
2023-04-19T11:22:36.670Z,5.90
2023-04-19T11:25:21.923Z,5.70
2023-04-19T11:27:53.170Z,5.90
2023-04-19T11:30:28.802Z,6.10
2023-04-19T11:32:57.936Z,5.70
2023-04-19T11:35:28.751Z,5.90
2023-04-19T11:37:59.267Z,6.70
2023-04-19T11:40:28.019Z,6.00
2023-04-19T11:43:02.184Z,5.30
2023-04-19T11:45:39.531Z,4.90
2023-04-19T11:48:15.940Z,5.60
2023-04-19T11:50:45.705Z,4.90
2023-04-19T11:53:18.410Z,4.60
2023-04-19T11:55:51.226Z,5.20
2023-04-19T11:58:29.846Z,5.40
2023-04-19T12:01:10.328Z,5.20
2023-04-19T12:03:53.556Z,5.10
2023-04-19T12:06:31.983Z,5.30
2023-04-19T12:09:00.666Z,5.60
2023-04-19T12:11:44.803Z,6.10
2023-04-19T12:14:16.675Z,5.60
2023-04-19T12:16:46.072Z,5.70
2023-04-19T12:19:18.055Z,5.80
2023-04-19T12:21:47.726Z,6.00
2023-04-19T12:24:16.891Z,5.50
2023-04-19T12:27:00.018Z,5.30
2023-04-19T12:29:30.862Z,6.00
2023-04-19T12:32:00.536Z,5.90
2023-04-19T12:34:29.422Z,5.90
2023-04-19T12:36:58.298Z,5.50
2023-04-19T12:39:27.012Z,5.20
2023-04-19T12:41:56.635Z,5.70
2023-04-19T12:44:25.519Z,5.40
2023-04-19T12:46:57.739Z,7.00
2023-04-19T12:49:26.869Z,7.00
2023-04-19T12:51:57.389Z,6.00
2023-04-19T12:54:26.479Z,5.90
2023-04-19T12:56:56.181Z,5.60
2023-04-19T12:59:24.857Z,6.40
2023-04-19T13:01:53.668Z,6.30
2023-04-19T13:04:23.151Z,6.70
2023-04-19T13:06:52.536Z,6.60
2023-04-19T13:09:21.345Z,7.30
2023-04-19T13:11:50.408Z,7.90
2023-04-19T13:14:19.189Z,7.60
2023-04-19T13:16:48.014Z,8.00
2023-04-19T13:19:16.659Z,9.10
2023-04-19T13:21:45.474Z,7.10
2023-04-19T13:24:14.380Z,8.30
2023-04-19T13:26:46.005Z,8.70
2023-04-19T13:29:14.894Z,8.70
2023-04-19T13:31:43.947Z,7.90
2023-04-19T13:34:12.866Z,9.10
2023-04-19T13:36:42.003Z,11.10
2023-04-19T13:39:10.759Z,10.20
2023-04-19T13:41:39.425Z,9.30
2023-04-19T13:44:08.108Z,9.50
2023-04-19T13:46:36.815Z,9.70
2023-04-19T13:49:05.472Z,12.80
2023-04-19T13:51:46.385Z,13.60
2023-04-19T13:54:19.810Z,14.60
2023-04-19T13:56:51.968Z,12.70
2023-04-19T13:59:21.843Z,10.20
2023-04-19T14:01:50.525Z,10.00
2023-04-19T14:04:19.984Z,9.50
2023-04-19T14:06:49.325Z,8.80
2023-04-19T14:09:18.266Z,8.90
2023-04-19T14:11:48.846Z,10.00
2023-04-19T14:14:18.077Z,11.10
2023-04-19T14:16:47.099Z,9.90
2023-04-19T14:19:15.901Z,9.20
2023-04-19T14:21:44.551Z,9.30
2023-04-19T14:24:13.237Z,9.10
2023-04-19T14:26:41.896Z,9.00
2023-04-19T14:29:10.661Z,10.30
2023-04-19T14:31:39.320Z,10.80
2023-04-19T14:34:08.018Z,8.70
2023-04-19T14:36:36.800Z,8.00
2023-04-19T14:39:06.217Z,7.90
2023-04-19T14:41:34.869Z,8.70
2023-04-19T14:44:03.567Z,8.50
2023-04-19T14:46:32.295Z,8.40
2023-04-19T14:49:03.987Z,10.20
2023-04-19T14:51:32.942Z,9.00
2023-04-19T14:54:01.608Z,9.40
2023-04-19T14:56:30.885Z,9.70
2023-04-19T14:58:59.906Z,10.70
2023-04-19T15:01:28.570Z,10.40
2023-04-19T15:03:57.526Z,9.80
2023-04-19T15:06:26.420Z,9.30
2023-04-19T15:08:55.149Z,9.50
2023-04-19T15:11:23.840Z,8.00
2023-04-19T15:13:52.523Z,8.60
2023-04-19T15:16:21.261Z,9.70
2023-04-19T15:18:50.423Z,8.80
2023-04-19T15:21:22.219Z,9.20
2023-04-19T15:23:52.398Z,10.00
2023-04-19T15:26:21.739Z,8.30
2023-04-19T15:28:50.461Z,10.10
2023-04-19T15:31:19.197Z,10.90
2023-04-19T15:33:47.907Z,9.90
2023-04-19T15:36:16.568Z,10.30
2023-04-19T15:38:45.318Z,17.30
2023-04-19T15:41:14.011Z,19.60
2023-04-19T15:43:42.670Z,10.60
2023-04-19T15:46:15.940Z,11.90
2023-04-19T15:48:46.927Z,11.60
2023-04-19T15:51:16.124Z,14.90
2023-04-19T15:53:44.896Z,20.00
2023-04-19T15:56:13.575Z,21.10
2023-04-19T15:58:42.277Z,20.80
2023-04-19T16:01:12.322Z,24.30
2023-04-19T16:03:41.378Z,19.60
2023-04-19T16:06:10.554Z,16.70
2023-04-19T16:08:39.523Z,17.20
2023-04-19T16:11:08.312Z,17.10
2023-04-19T16:13:37.063Z,16.50
2023-04-19T16:16:06.080Z,16.70
2023-04-19T16:18:34.776Z,19.70
2023-04-19T16:21:03.847Z,18.30
2023-04-19T16:23:32.567Z,22.00
2023-04-19T16:26:01.291Z,20.20
2023-04-19T16:28:29.988Z,21.30
2023-04-19T16:30:58.640Z,21.30
2023-04-19T16:33:27.613Z,22.20
2023-04-19T16:35:56.302Z,21.80
2023-04-19T16:38:24.959Z,20.60
2023-04-19T16:40:54.824Z,20.00
2023-04-19T16:43:23.686Z,15.10
2023-04-19T16:45:52.428Z,18.60
2023-04-19T16:48:21.281Z,23.40
2023-04-19T16:50:50.010Z,24.50
2023-04-19T16:53:18.731Z,31.30
2023-04-19T16:55:47.485Z,33.00
2023-04-19T16:58:16.231Z,36.90
2023-04-19T17:00:44.862Z,50.70
2023-04-19T17:03:14.451Z,39.50
2023-04-19T17:05:43.355Z,35.30
2023-04-19T17:08:12.174Z,37.00
2023-04-19T17:10:40.838Z,31.60
2023-04-19T17:13:09.618Z,29.40
2023-04-19T17:15:38.742Z,24.80
2023-04-19T17:18:07.553Z,23.10
2023-04-19T17:20:36.316Z,24.00
2023-04-19T17:23:05.013Z,23.90
2023-04-19T17:25:33.665Z,19.00
2023-04-19T17:28:03.629Z,15.40
2023-04-19T17:30:32.589Z,13.70
2023-04-19T17:33:01.357Z,12.50
2023-04-19T17:35:30.207Z,10.10
2023-04-19T17:37:58.914Z,9.90
2023-04-19T17:40:29.246Z,10.40
2023-04-19T17:42:58.475Z,10.80
2023-04-19T17:45:27.313Z,11.40
2023-04-19T17:47:56.405Z,22.90
2023-04-19T17:50:26.380Z,16.10
2023-04-19T17:52:55.157Z,21.70
2023-04-19T17:55:25.431Z,19.30
2023-04-19T17:57:54.244Z,18.60
2023-04-19T18:00:22.980Z,19.50
2023-04-19T18:02:51.870Z,21.80
2023-04-19T18:05:20.980Z,24.30
2023-04-19T18:07:49.711Z,24.40
2023-04-19T18:10:18.499Z,33.20
2023-04-19T18:12:47.175Z,29.70
2023-04-19T18:15:16.032Z,16.90
2023-04-19T18:17:44.742Z,16.90
2023-04-19T18:20:13.980Z,23.50
2023-04-19T18:22:42.821Z,28.90
2023-04-19T18:25:11.524Z,25.80
2023-04-19T18:27:40.285Z,34.60
2023-04-19T18:30:09.359Z,35.40
2023-04-19T18:32:38.239Z,34.50
2023-04-19T18:35:09.954Z,32.90
2023-04-19T18:37:39.235Z,32.10
2023-04-19T18:40:08.539Z,35.90
2023-04-19T18:42:37.217Z,34.70
2023-04-19T18:45:07.159Z,30.10
2023-04-19T18:47:35.922Z,31.90
2023-04-19T18:50:06.637Z,31.70
2023-04-19T18:52:39.053Z,31.60
2023-04-19T18:55:08.576Z,30.40
2023-04-19T18:57:39.046Z,29.80
2023-04-19T19:00:11.357Z,29.90
2023-04-19T19:02:41.185Z,29.40
2023-04-19T19:05:13.469Z,32.60
2023-04-19T19:07:43.024Z,30.60
2023-04-19T19:10:18.335Z,32.70
2023-04-19T19:12:50.875Z,30.10
2023-04-19T19:15:19.808Z,30.00
2023-04-19T19:17:50.186Z,29.80
2023-04-19T19:20:19.983Z,29.00
2023-04-19T19:22:49.019Z,25.70
2023-04-19T19:25:17.976Z,23.00
2023-04-19T19:28:05.448Z,21.50
2023-04-19T19:30:39.728Z,20.20
2023-04-19T19:33:08.875Z,21.10
2023-04-19T19:38:07.445Z,20.70
2023-04-19T19:40:53.154Z,21.00
2023-04-19T19:43:25.292Z,22.80
2023-04-19T19:45:53.979Z,20.90
2023-04-19T19:48:22.853Z,22.80
2023-04-19T19:51:12.932Z,23.80
2023-04-19T19:53:40.537Z,22.30
2023-04-19T19:56:18.306Z,22.60
2023-04-19T19:58:52.157Z,21.10
2023-04-19T20:01:22.616Z,21.60
2023-04-19T20:03:54.886Z,19.20
2023-04-19T20:08:57.390Z,19.50
2023-04-19T20:11:26.365Z,20.20
2023-04-19T20:13:55.051Z,19.20
2023-04-19T20:16:24.417Z,18.80
2023-04-19T20:18:54.521Z,21.80
2023-04-19T20:21:23.526Z,24.20
2023-04-19T20:23:52.692Z,27.90
2023-04-19T20:26:21.341Z,28.20
2023-04-19T20:28:49.997Z,28.90
2023-04-19T20:31:18.747Z,27.60
2023-04-19T20:33:47.515Z,27.00
2023-04-19T20:36:16.505Z,25.60
2023-04-19T20:38:45.211Z,23.60
2023-04-19T20:41:13.998Z,23.00
2023-04-19T20:43:42.776Z,22.60
2023-04-19T20:46:11.549Z,22.40
2023-04-19T20:48:40.347Z,21.50
2023-04-19T20:51:09.012Z,22.20
2023-04-19T20:53:37.682Z,20.80
2023-04-19T20:56:06.639Z,20.10
2023-04-19T20:58:35.956Z,22.50
2023-04-19T21:01:04.712Z,21.10
2023-04-19T21:03:33.865Z,20.10
2023-04-19T21:06:02.667Z,19.80
2023-04-19T21:08:31.332Z,16.90
2023-04-19T21:11:00.083Z,15.80
2023-04-19T21:13:28.955Z,18.10
2023-04-19T21:15:57.840Z,20.20
2023-04-19T21:18:29.771Z,21.90
2023-04-19T21:20:58.774Z,30.10
2023-04-19T21:23:27.741Z,28.40
2023-04-19T21:25:56.414Z,27.60
2023-04-19T21:28:25.164Z,21.70
2023-04-19T21:30:53.860Z,19.50
2023-04-19T21:33:22.527Z,19.00
2023-04-19T21:35:51.276Z,19.90
2023-04-19T21:38:20.193Z,19.90
2023-04-19T21:40:49.503Z,21.20
2023-04-19T21:43:18.164Z,20.50
2023-04-19T21:45:46.791Z,20.20
2023-04-19T21:48:15.453Z,20.20
2023-04-19T21:50:44.221Z,27.50
2023-04-19T21:53:12.904Z,29.20
2023-04-19T21:55:41.562Z,22.60
2023-04-19T21:58:10.557Z,20.40
2023-04-19T22:00:39.665Z,19.30
2023-04-19T22:03:08.751Z,18.70
2023-04-19T22:05:37.627Z,17.10
2023-04-19T22:08:07.026Z,18.50
2023-04-19T22:10:35.688Z,18.50
2023-04-19T22:13:05.046Z,19.20
2023-04-19T22:15:33.692Z,19.80
2023-04-19T22:18:03.373Z,18.40
2023-04-19T22:20:33.778Z,24.40
2023-04-19T22:23:02.616Z,19.50
2023-04-19T22:25:31.308Z,19.30
2023-04-19T22:27:59.993Z,17.50
2023-04-19T22:30:28.651Z,17.00
2023-04-19T22:32:57.317Z,16.60
2023-04-19T22:35:26.023Z,15.20
2023-04-19T22:37:54.715Z,15.40
2023-04-19T22:40:23.490Z,14.70
2023-04-19T22:42:52.157Z,17.00
2023-04-19T22:45:20.838Z,16.70
2023-04-19T22:47:49.509Z,18.30
2023-04-19T22:50:18.349Z,16.40
2023-04-19T22:52:47.007Z,15.90
2023-04-19T22:55:15.718Z,16.90
2023-04-19T22:57:44.789Z,17.10
2023-04-19T23:00:13.750Z,14.90
2023-04-19T23:02:42.538Z,14.90
2023-04-19T23:05:11.550Z,14.70
2023-04-19T23:07:42.008Z,14.80
2023-04-19T23:10:12.400Z,14.30
2023-04-19T23:12:41.058Z,15.00
2023-04-19T23:15:11.208Z,15.10
2023-04-19T23:17:39.953Z,15.40
2023-04-19T23:20:11.323Z,15.20
2023-04-19T23:22:40.227Z,16.10
2023-04-19T23:25:09.618Z,15.40
2023-04-19T23:27:38.363Z,15.50
2023-04-19T23:30:07.715Z,16.90
2023-04-19T23:32:36.481Z,15.60
2023-04-19T23:35:05.766Z,15.10
2023-04-19T23:37:34.421Z,15.80
2023-04-19T23:40:04.542Z,14.40
2023-04-19T23:42:33.439Z,14.40
2023-04-19T23:45:02.107Z,14.60
2023-04-19T23:47:31.045Z,16.10
2023-04-19T23:49:59.995Z,15.90
2023-04-19T23:52:28.648Z,16.00
2023-04-19T23:54:57.285Z,16.80
2023-04-19T23:57:26.082Z,16.20
2023-04-19T23:59:54.746Z,16.20
